sensor_id;sensor_type;location;lat;lon;timestamp;P1;durP1;ratioP1;P2;durP2;ratioP2
10715;SDS011;5409;42.620;23.316;2024-01-30T00:02:11;3.22;;;2.30;;
10715;SDS011;5409;42.620;23.316;2024-01-30T00:04:36;2.95;;;2.75;;
10715;SDS011;5409;42.620;23.316;2024-01-30T00:07:02;3.67;;;3.28;;
10715;SDS011;5409;42.620;23.316;2024-01-30T00:09:27;5.07;;;3.10;;
10715;SDS011;5409;42.620;23.316;2024-01-30T00:11:52;4.15;;;2.78;;
10715;SDS011;5409;42.620;23.316;2024-01-30T00:14:18;4.03;;;3.38;;
10715;SDS011;5409;42.620;23.316;2024-01-30T00:16:43;4.55;;;2.42;;
10715;SDS011;5409;42.620;23.316;2024-01-30T00:19:09;6.20;;;3.47;;
10715;SDS011;5409;42.620;23.316;2024-01-30T00:21:34;3.33;;;2.08;;
10715;SDS011;5409;42.620;23.316;2024-01-30T00:23:59;2.80;;;2.60;;
10715;SDS011;5409;42.620;23.316;2024-01-30T00:26:25;3.67;;;2.67;;
10715;SDS011;5409;42.620;23.316;2024-01-30T00:28:50;3.67;;;2.33;;
10715;SDS011;5409;42.620;23.316;2024-01-30T00:31:15;3.08;;;2.58;;
10715;SDS011;5409;42.620;23.316;2024-01-30T00:33:41;2.85;;;2.53;;
10715;SDS011;5409;42.620;23.316;2024-01-30T00:36:07;3.90;;;2.80;;
10715;SDS011;5409;42.620;23.316;2024-01-30T00:38:33;3.55;;;2.83;;
10715;SDS011;5409;42.620;23.316;2024-01-30T00:40:59;2.95;;;2.60;;
10715;SDS011;5409;42.620;23.316;2024-01-30T00:43:24;2.50;;;2.38;;
10715;SDS011;5409;42.620;23.316;2024-01-30T00:45:50;3.63;;;2.53;;
10715;SDS011;5409;42.620;23.316;2024-01-30T00:48:17;2.42;;;2.22;;
10715;SDS011;5409;42.620;23.316;2024-01-30T00:50:43;3.50;;;3.05;;
10715;SDS011;5409;42.620;23.316;2024-01-30T00:53:08;3.25;;;2.90;;
10715;SDS011;5409;42.620;23.316;2024-01-30T00:55:34;3.22;;;2.72;;
10715;SDS011;5409;42.620;23.316;2024-01-30T00:57:59;3.67;;;2.40;;
10715;SDS011;5409;42.620;23.316;2024-01-30T01:00:24;2.90;;;2.30;;
10715;SDS011;5409;42.620;23.316;2024-01-30T01:02:54;2.83;;;2.03;;
10715;SDS011;5409;42.620;23.316;2024-01-30T01:05:22;2.35;;;2.15;;
10715;SDS011;5409;42.620;23.316;2024-01-30T01:07:48;3.00;;;2.45;;
10715;SDS011;5409;42.620;23.316;2024-01-30T01:10:14;2.78;;;2.35;;
10715;SDS011;5409;42.620;23.316;2024-01-30T01:12:40;2.60;;;2.20;;
10715;SDS011;5409;42.620;23.316;2024-01-30T01:15:06;3.60;;;2.35;;
10715;SDS011;5409;42.620;23.316;2024-01-30T01:17:34;3.60;;;2.00;;
10715;SDS011;5409;42.620;23.316;2024-01-30T01:20:00;3.25;;;1.85;;
10715;SDS011;5409;42.620;23.316;2024-01-30T01:22:25;1.98;;;1.85;;
10715;SDS011;5409;42.620;23.316;2024-01-30T01:24:51;1.73;;;1.67;;
10715;SDS011;5409;42.620;23.316;2024-01-30T01:27:16;2.80;;;2.45;;
10715;SDS011;5409;42.620;23.316;2024-01-30T01:29:41;1.75;;;1.65;;
10715;SDS011;5409;42.620;23.316;2024-01-30T01:32:07;2.40;;;2.17;;
10715;SDS011;5409;42.620;23.316;2024-01-30T01:34:33;2.10;;;1.90;;
10715;SDS011;5409;42.620;23.316;2024-01-30T01:36:58;2.63;;;1.52;;
10715;SDS011;5409;42.620;23.316;2024-01-30T01:39:24;0.98;;;0.98;;
10715;SDS011;5409;42.620;23.316;2024-01-30T01:41:49;2.50;;;2.30;;
10715;SDS011;5409;42.620;23.316;2024-01-30T01:44:14;2.03;;;1.92;;
10715;SDS011;5409;42.620;23.316;2024-01-30T01:46:40;2.78;;;1.25;;
10715;SDS011;5409;42.620;23.316;2024-01-30T01:49:06;2.30;;;1.70;;
10715;SDS011;5409;42.620;23.316;2024-01-30T01:51:33;1.63;;;1.52;;
10715;SDS011;5409;42.620;23.316;2024-01-30T01:54:02;1.65;;;1.40;;
10715;SDS011;5409;42.620;23.316;2024-01-30T01:56:29;2.03;;;1.23;;
10715;SDS011;5409;42.620;23.316;2024-01-30T01:58:56;1.33;;;1.13;;
10715;SDS011;5409;42.620;23.316;2024-01-30T02:01:25;1.55;;;1.25;;
10715;SDS011;5409;42.620;23.316;2024-01-30T02:03:52;1.63;;;1.63;;
10715;SDS011;5409;42.620;23.316;2024-01-30T02:06:18;1.85;;;1.75;;
10715;SDS011;5409;42.620;23.316;2024-01-30T02:08:44;2.38;;;2.08;;
10715;SDS011;5409;42.620;23.316;2024-01-30T02:11:09;2.97;;;2.10;;
10715;SDS011;5409;42.620;23.316;2024-01-30T02:13:35;1.83;;;1.73;;
10715;SDS011;5409;42.620;23.316;2024-01-30T02:16:01;2.90;;;2.50;;
10715;SDS011;5409;42.620;23.316;2024-01-30T02:18:26;3.92;;;1.98;;
10715;SDS011;5409;42.620;23.316;2024-01-30T02:20:53;3.53;;;2.47;;
10715;SDS011;5409;42.620;23.316;2024-01-30T02:23:21;4.68;;;1.85;;
10715;SDS011;5409;42.620;23.316;2024-01-30T02:25:49;3.72;;;2.55;;
10715;SDS011;5409;42.620;23.316;2024-01-30T02:28:15;2.60;;;2.40;;
10715;SDS011;5409;42.620;23.316;2024-01-30T02:30:42;2.53;;;2.10;;
10715;SDS011;5409;42.620;23.316;2024-01-30T02:33:08;2.90;;;2.05;;
10715;SDS011;5409;42.620;23.316;2024-01-30T02:35:33;3.75;;;3.42;;
10715;SDS011;5409;42.620;23.316;2024-01-30T02:37:59;2.40;;;2.17;;
10715;SDS011;5409;42.620;23.316;2024-01-30T02:40:24;4.55;;;2.40;;
10715;SDS011;5409;42.620;23.316;2024-01-30T02:42:50;2.90;;;2.60;;
10715;SDS011;5409;42.620;23.316;2024-01-30T02:45:15;2.13;;;2.03;;
10715;SDS011;5409;42.620;23.316;2024-01-30T02:47:41;2.50;;;2.25;;
10715;SDS011;5409;42.620;23.316;2024-01-30T02:50:06;3.15;;;2.88;;
10715;SDS011;5409;42.620;23.316;2024-01-30T02:52:32;2.75;;;2.13;;
10715;SDS011;5409;42.620;23.316;2024-01-30T02:54:57;2.45;;;2.10;;
10715;SDS011;5409;42.620;23.316;2024-01-30T02:57:23;2.72;;;2.47;;
10715;SDS011;5409;42.620;23.316;2024-01-30T02:59:48;3.00;;;2.63;;
10715;SDS011;5409;42.620;23.316;2024-01-30T03:02:14;2.45;;;2.25;;
10715;SDS011;5409;42.620;23.316;2024-01-30T03:04:42;2.28;;;2.08;;
10715;SDS011;5409;42.620;23.316;2024-01-30T03:07:07;2.95;;;2.47;;
10715;SDS011;5409;42.620;23.316;2024-01-30T03:09:33;2.92;;;2.72;;
10715;SDS011;5409;42.620;23.316;2024-01-30T03:11:58;3.38;;;2.33;;
10715;SDS011;5409;42.620;23.316;2024-01-30T03:14:23;3.95;;;2.10;;
10715;SDS011;5409;42.620;23.316;2024-01-30T03:16:49;2.40;;;2.28;;
10715;SDS011;5409;42.620;23.316;2024-01-30T03:19:14;4.47;;;2.45;;
10715;SDS011;5409;42.620;23.316;2024-01-30T03:21:39;1.70;;;1.60;;
10715;SDS011;5409;42.620;23.316;2024-01-30T03:24:05;2.25;;;1.38;;
10715;SDS011;5409;42.620;23.316;2024-01-30T03:26:30;2.72;;;1.90;;
10715;SDS011;5409;42.620;23.316;2024-01-30T03:28:56;2.63;;;1.63;;
10715;SDS011;5409;42.620;23.316;2024-01-30T03:31:21;2.25;;;2.05;;
10715;SDS011;5409;42.620;23.316;2024-01-30T03:33:47;1.73;;;1.50;;
10715;SDS011;5409;42.620;23.316;2024-01-30T03:36:12;2.45;;;2.05;;
10715;SDS011;5409;42.620;23.316;2024-01-30T03:38:38;2.20;;;1.92;;
10715;SDS011;5409;42.620;23.316;2024-01-30T03:41:03;2.58;;;1.65;;
10715;SDS011;5409;42.620;23.316;2024-01-30T03:43:32;1.75;;;1.60;;
10715;SDS011;5409;42.620;23.316;2024-01-30T03:45:57;2.08;;;1.98;;
10715;SDS011;5409;42.620;23.316;2024-01-30T03:48:23;1.50;;;1.23;;
10715;SDS011;5409;42.620;23.316;2024-01-30T03:50:49;2.38;;;1.52;;
10715;SDS011;5409;42.620;23.316;2024-01-30T03:53:15;2.88;;;2.03;;
10715;SDS011;5409;42.620;23.316;2024-01-30T03:55:40;3.17;;;2.15;;
10715;SDS011;5409;42.620;23.316;2024-01-30T03:58:05;3.38;;;1.60;;
10715;SDS011;5409;42.620;23.316;2024-01-30T04:00:31;1.80;;;1.70;;
10715;SDS011;5409;42.620;23.316;2024-01-30T04:02:56;2.50;;;2.30;;
10715;SDS011;5409;42.620;23.316;2024-01-30T04:05:21;2.67;;;1.92;;
10715;SDS011;5409;42.620;23.316;2024-01-30T04:07:47;2.95;;;2.00;;
10715;SDS011;5409;42.620;23.316;2024-01-30T04:10:12;3.35;;;2.15;;
10715;SDS011;5409;42.620;23.316;2024-01-30T04:12:38;1.80;;;1.70;;
10715;SDS011;5409;42.620;23.316;2024-01-30T04:15:03;1.92;;;1.50;;
10715;SDS011;5409;42.620;23.316;2024-01-30T04:17:29;1.70;;;1.60;;
10715;SDS011;5409;42.620;23.316;2024-01-30T04:19:54;2.17;;;1.95;;
10715;SDS011;5409;42.620;23.316;2024-01-30T04:22:20;2.00;;;1.52;;
10715;SDS011;5409;42.620;23.316;2024-01-30T04:24:45;0.63;;;0.63;;
10715;SDS011;5409;42.620;23.316;2024-01-30T04:27:11;1.55;;;1.33;;
10715;SDS011;5409;42.620;23.316;2024-01-30T04:29:36;1.17;;;1.08;;
10715;SDS011;5409;42.620;23.316;2024-01-30T04:32:01;1.15;;;0.95;;
10715;SDS011;5409;42.620;23.316;2024-01-30T04:34:27;1.13;;;1.08;;
10715;SDS011;5409;42.620;23.316;2024-01-30T04:36:52;0.98;;;0.98;;
10715;SDS011;5409;42.620;23.316;2024-01-30T04:39:17;1.40;;;1.30;;
10715;SDS011;5409;42.620;23.316;2024-01-30T04:41:43;0.95;;;0.95;;
10715;SDS011;5409;42.620;23.316;2024-01-30T04:44:08;1.35;;;1.25;;
10715;SDS011;5409;42.620;23.316;2024-01-30T04:46:33;2.60;;;1.25;;
10715;SDS011;5409;42.620;23.316;2024-01-30T04:49:01;2.05;;;1.95;;
10715;SDS011;5409;42.620;23.316;2024-01-30T04:51:28;1.13;;;0.75;;
10715;SDS011;5409;42.620;23.316;2024-01-30T04:53:54;1.27;;;1.25;;
10715;SDS011;5409;42.620;23.316;2024-01-30T04:56:19;1.25;;;1.25;;
10715;SDS011;5409;42.620;23.316;2024-01-30T04:58:44;1.38;;;1.08;;
10715;SDS011;5409;42.620;23.316;2024-01-30T05:01:10;1.83;;;1.17;;
10715;SDS011;5409;42.620;23.316;2024-01-30T05:03:40;1.55;;;1.05;;
10715;SDS011;5409;42.620;23.316;2024-01-30T05:06:05;2.72;;;1.92;;
10715;SDS011;5409;42.620;23.316;2024-01-30T05:08:31;2.13;;;2.00;;
10715;SDS011;5409;42.620;23.316;2024-01-30T05:10:59;1.05;;;1.05;;
10715;SDS011;5409;42.620;23.316;2024-01-30T05:13:25;1.08;;;1.00;;
10715;SDS011;5409;42.620;23.316;2024-01-30T05:15:50;1.10;;;1.10;;
10715;SDS011;5409;42.620;23.316;2024-01-30T05:18:16;1.33;;;0.82;;
10715;SDS011;5409;42.620;23.316;2024-01-30T05:20:41;1.25;;;0.98;;
10715;SDS011;5409;42.620;23.316;2024-01-30T05:23:07;1.23;;;1.15;;
10715;SDS011;5409;42.620;23.316;2024-01-30T05:25:33;1.83;;;0.80;;
10715;SDS011;5409;42.620;23.316;2024-01-30T05:27:58;0.80;;;0.80;;
10715;SDS011;5409;42.620;23.316;2024-01-30T05:30:23;1.58;;;1.45;;
10715;SDS011;5409;42.620;23.316;2024-01-30T05:32:49;1.92;;;0.68;;
10715;SDS011;5409;42.620;23.316;2024-01-30T05:35:14;2.15;;;1.30;;
10715;SDS011;5409;42.620;23.316;2024-01-30T05:37:40;2.55;;;2.15;;
10715;SDS011;5409;42.620;23.316;2024-01-30T05:40:05;5.68;;;2.97;;
10715;SDS011;5409;42.620;23.316;2024-01-30T05:42:31;5.90;;;2.67;;
10715;SDS011;5409;42.620;23.316;2024-01-30T05:44:57;4.55;;;2.13;;
10715;SDS011;5409;42.620;23.316;2024-01-30T05:47:22;1.70;;;1.60;;
10715;SDS011;5409;42.620;23.316;2024-01-30T05:49:47;3.03;;;1.17;;
10715;SDS011;5409;42.620;23.316;2024-01-30T05:52:13;6.40;;;2.13;;
10715;SDS011;5409;42.620;23.316;2024-01-30T05:54:40;2.53;;;1.85;;
10715;SDS011;5409;42.620;23.316;2024-01-30T05:57:05;2.00;;;1.88;;
10715;SDS011;5409;42.620;23.316;2024-01-30T05:59:31;4.53;;;2.40;;
10715;SDS011;5409;42.620;23.316;2024-01-30T06:01:57;2.55;;;2.35;;
10715;SDS011;5409;42.620;23.316;2024-01-30T06:04:22;2.00;;;1.83;;
10715;SDS011;5409;42.620;23.316;2024-01-30T06:06:48;2.80;;;2.03;;
10715;SDS011;5409;42.620;23.316;2024-01-30T06:09:13;3.80;;;1.92;;
10715;SDS011;5409;42.620;23.316;2024-01-30T06:11:39;8.10;;;2.38;;
10715;SDS011;5409;42.620;23.316;2024-01-30T06:14:04;4.18;;;1.50;;
10715;SDS011;5409;42.620;23.316;2024-01-30T06:16:30;2.17;;;1.95;;
10715;SDS011;5409;42.620;23.316;2024-01-30T06:18:56;2.53;;;2.33;;
10715;SDS011;5409;42.620;23.316;2024-01-30T06:21:21;1.80;;;1.67;;
10715;SDS011;5409;42.620;23.316;2024-01-30T06:23:46;2.38;;;2.08;;
10715;SDS011;5409;42.620;23.316;2024-01-30T06:26:12;1.98;;;1.65;;
10715;SDS011;5409;42.620;23.316;2024-01-30T06:28:37;2.35;;;2.15;;
10715;SDS011;5409;42.620;23.316;2024-01-30T06:31:03;1.83;;;1.75;;
10715;SDS011;5409;42.620;23.316;2024-01-30T06:33:28;2.00;;;1.45;;
10715;SDS011;5409;42.620;23.316;2024-01-30T06:35:53;1.98;;;1.60;;
10715;SDS011;5409;42.620;23.316;2024-01-30T06:38:19;1.52;;;1.48;;
10715;SDS011;5409;42.620;23.316;2024-01-30T06:40:44;1.63;;;1.55;;
10715;SDS011;5409;42.620;23.316;2024-01-30T06:43:10;2.25;;;1.10;;
10715;SDS011;5409;42.620;23.316;2024-01-30T06:45:36;3.53;;;2.08;;
10715;SDS011;5409;42.620;23.316;2024-01-30T06:48:02;2.58;;;1.55;;
10715;SDS011;5409;42.620;23.316;2024-01-30T06:50:28;2.03;;;1.88;;
10715;SDS011;5409;42.620;23.316;2024-01-30T06:52:53;2.10;;;1.85;;
10715;SDS011;5409;42.620;23.316;2024-01-30T06:55:18;1.10;;;1.00;;
10715;SDS011;5409;42.620;23.316;2024-01-30T06:57:44;1.48;;;1.30;;
10715;SDS011;5409;42.620;23.316;2024-01-30T07:00:09;2.22;;;1.40;;
10715;SDS011;5409;42.620;23.316;2024-01-30T07:02:35;2.17;;;1.20;;
10715;SDS011;5409;42.620;23.316;2024-01-30T07:05:01;1.35;;;1.25;;
10715;SDS011;5409;42.620;23.316;2024-01-30T07:07:27;1.85;;;1.75;;
10715;SDS011;5409;42.620;23.316;2024-01-30T07:09:53;2.42;;;2.22;;
10715;SDS011;5409;42.620;23.316;2024-01-30T07:12:21;1.80;;;1.70;;
10715;SDS011;5409;42.620;23.316;2024-01-30T07:14:47;1.20;;;1.08;;
10715;SDS011;5409;42.620;23.316;2024-01-30T07:17:13;1.23;;;1.13;;
10715;SDS011;5409;42.620;23.316;2024-01-30T07:19:38;1.30;;;1.30;;
10715;SDS011;5409;42.620;23.316;2024-01-30T07:22:04;1.38;;;0.88;;
10715;SDS011;5409;42.620;23.316;2024-01-30T07:24:29;1.35;;;1.33;;
10715;SDS011;5409;42.620;23.316;2024-01-30T07:26:54;2.25;;;2.15;;
10715;SDS011;5409;42.620;23.316;2024-01-30T07:29:20;1.50;;;1.38;;
10715;SDS011;5409;42.620;23.316;2024-01-30T07:31:45;2.38;;;1.38;;
10715;SDS011;5409;42.620;23.316;2024-01-30T07:34:11;1.55;;;1.45;;
10715;SDS011;5409;42.620;23.316;2024-01-30T07:36:37;1.58;;;1.48;;
10715;SDS011;5409;42.620;23.316;2024-01-30T07:39:02;1.80;;;1.70;;
10715;SDS011;5409;42.620;23.316;2024-01-30T07:41:27;1.98;;;1.88;;
10715;SDS011;5409;42.620;23.316;2024-01-30T07:43:53;1.23;;;1.17;;
10715;SDS011;5409;42.620;23.316;2024-01-30T07:46:18;1.35;;;1.25;;
10715;SDS011;5409;42.620;23.316;2024-01-30T07:48:44;1.42;;;1.33;;
10715;SDS011;5409;42.620;23.316;2024-01-30T07:51:09;1.05;;;0.85;;
10715;SDS011;5409;42.620;23.316;2024-01-30T07:53:34;2.90;;;1.40;;
10715;SDS011;5409;42.620;23.316;2024-01-30T07:56:00;1.52;;;1.42;;
10715;SDS011;5409;42.620;23.316;2024-01-30T07:58:25;2.45;;;1.13;;
10715;SDS011;5409;42.620;23.316;2024-01-30T08:00:52;1.38;;;0.98;;
10715;SDS011;5409;42.620;23.316;2024-01-30T08:03:18;1.52;;;1.30;;
10715;SDS011;5409;42.620;23.316;2024-01-30T08:05:44;2.45;;;1.15;;
10715;SDS011;5409;42.620;23.316;2024-01-30T08:08:09;1.52;;;1.45;;
10715;SDS011;5409;42.620;23.316;2024-01-30T08:10:35;1.05;;;1.00;;
10715;SDS011;5409;42.620;23.316;2024-01-30T08:13:00;2.17;;;1.15;;
10715;SDS011;5409;42.620;23.316;2024-01-30T08:15:26;0.93;;;0.93;;
10715;SDS011;5409;42.620;23.316;2024-01-30T08:17:52;1.42;;;1.33;;
10715;SDS011;5409;42.620;23.316;2024-01-30T08:20:22;0.60;;;0.60;;
10715;SDS011;5409;42.620;23.316;2024-01-30T08:22:48;7.72;;;1.42;;
10715;SDS011;5409;42.620;23.316;2024-01-30T08:25:13;2.00;;;1.90;;
10715;SDS011;5409;42.620;23.316;2024-01-30T08:27:38;2.15;;;1.50;;
10715;SDS011;5409;42.620;23.316;2024-01-30T08:30:05;2.08;;;1.88;;
10715;SDS011;5409;42.620;23.316;2024-01-30T08:32:31;1.63;;;1.52;;
10715;SDS011;5409;42.620;23.316;2024-01-30T08:34:57;1.80;;;0.98;;
10715;SDS011;5409;42.620;23.316;2024-01-30T08:37:22;1.77;;;1.67;;
10715;SDS011;5409;42.620;23.316;2024-01-30T08:39:48;2.03;;;1.58;;
10715;SDS011;5409;42.620;23.316;2024-01-30T08:42:13;1.45;;;1.38;;
10715;SDS011;5409;42.620;23.316;2024-01-30T08:44:38;1.85;;;1.75;;
10715;SDS011;5409;42.620;23.316;2024-01-30T08:47:04;2.10;;;2.00;;
10715;SDS011;5409;42.620;23.316;2024-01-30T08:49:29;2.13;;;2.03;;
10715;SDS011;5409;42.620;23.316;2024-01-30T08:51:55;2.15;;;2.00;;
10715;SDS011;5409;42.620;23.316;2024-01-30T08:54:20;1.92;;;1.83;;
10715;SDS011;5409;42.620;23.316;2024-01-30T08:56:45;5.30;;;1.52;;
10715;SDS011;5409;42.620;23.316;2024-01-30T08:59:11;1.60;;;1.50;;
10715;SDS011;5409;42.620;23.316;2024-01-30T09:01:36;2.42;;;2.30;;
10715;SDS011;5409;42.620;23.316;2024-01-30T09:04:03;2.38;;;1.80;;
10715;SDS011;5409;42.620;23.316;2024-01-30T09:06:29;2.45;;;1.55;;
10715;SDS011;5409;42.620;23.316;2024-01-30T09:08:54;3.67;;;2.33;;
10715;SDS011;5409;42.620;23.316;2024-01-30T09:11:19;3.85;;;1.92;;
10715;SDS011;5409;42.620;23.316;2024-01-30T09:13:45;2.60;;;2.40;;
10715;SDS011;5409;42.620;23.316;2024-01-30T09:16:10;1.63;;;1.52;;
10715;SDS011;5409;42.620;23.316;2024-01-30T09:18:36;2.38;;;2.00;;
10715;SDS011;5409;42.620;23.316;2024-01-30T09:21:01;6.05;;;2.47;;
10715;SDS011;5409;42.620;23.316;2024-01-30T09:23:27;2.03;;;1.83;;
10715;SDS011;5409;42.620;23.316;2024-01-30T09:25:53;3.53;;;2.13;;
10715;SDS011;5409;42.620;23.316;2024-01-30T09:28:18;1.50;;;1.40;;
10715;SDS011;5409;42.620;23.316;2024-01-30T09:30:44;3.40;;;2.75;;
10715;SDS011;5409;42.620;23.316;2024-01-30T09:33:09;2.72;;;1.73;;
10715;SDS011;5409;42.620;23.316;2024-01-30T09:35:35;3.05;;;2.05;;
10715;SDS011;5409;42.620;23.316;2024-01-30T09:38:01;2.75;;;1.95;;
10715;SDS011;5409;42.620;23.316;2024-01-30T09:40:27;2.72;;;2.53;;
10715;SDS011;5409;42.620;23.316;2024-01-30T09:42:53;3.15;;;2.30;;
10715;SDS011;5409;42.620;23.316;2024-01-30T09:45:19;4.47;;;2.70;;
10715;SDS011;5409;42.620;23.316;2024-01-30T09:47:48;5.45;;;3.08;;
10715;SDS011;5409;42.620;23.316;2024-01-30T09:50:14;3.97;;;2.67;;
10715;SDS011;5409;42.620;23.316;2024-01-30T09:52:40;2.08;;;1.98;;
10715;SDS011;5409;42.620;23.316;2024-01-30T09:55:06;3.40;;;2.45;;
10715;SDS011;5409;42.620;23.316;2024-01-30T09:57:32;5.18;;;2.30;;
10715;SDS011;5409;42.620;23.316;2024-01-30T09:59:59;4.47;;;2.47;;
10715;SDS011;5409;42.620;23.316;2024-01-30T10:02:24;2.63;;;2.05;;
10715;SDS011;5409;42.620;23.316;2024-01-30T10:04:50;4.55;;;2.28;;
10715;SDS011;5409;42.620;23.316;2024-01-30T10:07:17;3.45;;;2.33;;
10715;SDS011;5409;42.620;23.316;2024-01-30T10:09:43;3.53;;;2.38;;
10715;SDS011;5409;42.620;23.316;2024-01-30T10:12:09;1.77;;;1.70;;
10715;SDS011;5409;42.620;23.316;2024-01-30T10:14:43;2.00;;;1.83;;
10715;SDS011;5409;42.620;23.316;2024-01-30T10:17:09;3.40;;;2.13;;
10715;SDS011;5409;42.620;23.316;2024-01-30T10:19:36;2.63;;;2.42;;
10715;SDS011;5409;42.620;23.316;2024-01-30T10:22:03;2.88;;;2.63;;
10715;SDS011;5409;42.620;23.316;2024-01-30T10:24:29;3.00;;;2.25;;
10715;SDS011;5409;42.620;23.316;2024-01-30T10:26:55;2.35;;;1.85;;
10715;SDS011;5409;42.620;23.316;2024-01-30T10:29:20;3.90;;;2.38;;
10715;SDS011;5409;42.620;23.316;2024-01-30T10:31:45;2.00;;;1.88;;
10715;SDS011;5409;42.620;23.316;2024-01-30T10:34:12;3.28;;;2.53;;
10715;SDS011;5409;42.620;23.316;2024-01-30T10:36:40;3.40;;;2.67;;
10715;SDS011;5409;42.620;23.316;2024-01-30T10:39:08;3.05;;;2.67;;
10715;SDS011;5409;42.620;23.316;2024-01-30T10:41:35;3.15;;;2.80;;
10715;SDS011;5409;42.620;23.316;2024-01-30T10:44:08;4.13;;;3.13;;
10715;SDS011;5409;42.620;23.316;2024-01-30T10:46:35;3.45;;;3.10;;
10715;SDS011;5409;42.620;23.316;2024-01-30T10:49:03;5.18;;;2.15;;
10715;SDS011;5409;42.620;23.316;2024-01-30T10:51:29;2.80;;;2.60;;
10715;SDS011;5409;42.620;23.316;2024-01-30T10:53:56;3.45;;;3.03;;
10715;SDS011;5409;42.620;23.316;2024-01-30T10:56:23;3.63;;;2.58;;
10715;SDS011;5409;42.620;23.316;2024-01-30T10:58:49;2.67;;;2.13;;
10715;SDS011;5409;42.620;23.316;2024-01-30T11:01:19;2.97;;;2.72;;
10715;SDS011;5409;42.620;23.316;2024-01-30T11:03:48;2.55;;;1.88;;
10715;SDS011;5409;42.620;23.316;2024-01-30T11:06:30;3.15;;;2.30;;
10715;SDS011;5409;42.620;23.316;2024-01-30T11:09:02;5.03;;;3.17;;
10715;SDS011;5409;42.620;23.316;2024-01-30T11:11:50;2.08;;;1.98;;
10715;SDS011;5409;42.620;23.316;2024-01-30T11:14:16;4.97;;;2.45;;
10715;SDS011;5409;42.620;23.316;2024-01-30T11:16:42;3.17;;;2.88;;
10715;SDS011;5409;42.620;23.316;2024-01-30T11:19:10;3.85;;;2.53;;
10715;SDS011;5409;42.620;23.316;2024-01-30T11:21:41;5.07;;;1.92;;
10715;SDS011;5409;42.620;23.316;2024-01-30T11:24:07;3.20;;;2.05;;
10715;SDS011;5409;42.620;23.316;2024-01-30T11:26:33;3.47;;;1.92;;
10715;SDS011;5409;42.620;23.316;2024-01-30T11:28:59;1.83;;;1.73;;
10715;SDS011;5409;42.620;23.316;2024-01-30T11:31:28;3.50;;;2.20;;
10715;SDS011;5409;42.620;23.316;2024-01-30T11:33:53;2.58;;;2.38;;
10715;SDS011;5409;42.620;23.316;2024-01-30T11:36:23;2.33;;;2.13;;
10715;SDS011;5409;42.620;23.316;2024-01-30T11:38:51;2.22;;;2.13;;
10715;SDS011;5409;42.620;23.316;2024-01-30T11:41:16;3.05;;;2.22;;
10715;SDS011;5409;42.620;23.316;2024-01-30T11:43:42;3.40;;;2.13;;
10715;SDS011;5409;42.620;23.316;2024-01-30T11:46:08;2.50;;;2.30;;
10715;SDS011;5409;42.620;23.316;2024-01-30T11:48:35;2.10;;;1.90;;
10715;SDS011;5409;42.620;23.316;2024-01-30T11:51:00;2.58;;;2.38;;
10715;SDS011;5409;42.620;23.316;2024-01-30T11:53:26;4.65;;;2.17;;
10715;SDS011;5409;42.620;23.316;2024-01-30T11:55:52;2.47;;;2.28;;
10715;SDS011;5409;42.620;23.316;2024-01-30T11:58:18;2.67;;;2.45;;
10715;SDS011;5409;42.620;23.316;2024-01-30T12:00:52;4.25;;;2.78;;
10715;SDS011;5409;42.620;23.316;2024-01-30T12:03:21;4.65;;;3.75;;
10715;SDS011;5409;42.620;23.316;2024-01-30T12:05:46;5.40;;;3.72;;
10715;SDS011;5409;42.620;23.316;2024-01-30T12:08:15;2.33;;;2.20;;
10715;SDS011;5409;42.620;23.316;2024-01-30T12:10:41;4.63;;;2.53;;
10715;SDS011;5409;42.620;23.316;2024-01-30T12:13:07;3.35;;;2.17;;
10715;SDS011;5409;42.620;23.316;2024-01-30T12:15:32;2.60;;;2.40;;
10715;SDS011;5409;42.620;23.316;2024-01-30T12:18:07;2.85;;;2.20;;
10715;SDS011;5409;42.620;23.316;2024-01-30T12:20:32;2.55;;;2.33;;
10715;SDS011;5409;42.620;23.316;2024-01-30T12:22:58;2.53;;;2.22;;
10715;SDS011;5409;42.620;23.316;2024-01-30T12:25:23;2.72;;;1.98;;
10715;SDS011;5409;42.620;23.316;2024-01-30T12:27:49;3.58;;;3.28;;
10715;SDS011;5409;42.620;23.316;2024-01-30T12:30:16;4.80;;;2.88;;
10715;SDS011;5409;42.620;23.316;2024-01-30T12:32:43;4.32;;;2.55;;
10715;SDS011;5409;42.620;23.316;2024-01-30T12:37:42;2.78;;;2.45;;
10715;SDS011;5409;42.620;23.316;2024-01-30T12:40:09;3.85;;;2.38;;
10715;SDS011;5409;42.620;23.316;2024-01-30T12:42:36;3.28;;;2.75;;
10715;SDS011;5409;42.620;23.316;2024-01-30T12:45:04;2.50;;;2.30;;
10715;SDS011;5409;42.620;23.316;2024-01-30T12:47:30;2.75;;;2.20;;
10715;SDS011;5409;42.620;23.316;2024-01-30T12:49:56;3.45;;;3.08;;
10715;SDS011;5409;42.620;23.316;2024-01-30T12:52:22;5.85;;;2.60;;
10715;SDS011;5409;42.620;23.316;2024-01-30T12:54:48;3.42;;;2.65;;
10715;SDS011;5409;42.620;23.316;2024-01-30T12:57:13;4.13;;;2.47;;
10715;SDS011;5409;42.620;23.316;2024-01-30T12:59:39;3.13;;;2.83;;
10715;SDS011;5409;42.620;23.316;2024-01-30T13:02:04;2.00;;;1.75;;
10715;SDS011;5409;42.620;23.316;2024-01-30T13:04:30;2.45;;;2.25;;
10715;SDS011;5409;42.620;23.316;2024-01-30T13:06:56;5.38;;;2.42;;
10715;SDS011;5409;42.620;23.316;2024-01-30T13:09:22;4.25;;;3.60;;
10715;SDS011;5409;42.620;23.316;2024-01-30T13:11:47;5.15;;;2.53;;
10715;SDS011;5409;42.620;23.316;2024-01-30T13:14:13;4.80;;;2.28;;
10715;SDS011;5409;42.620;23.316;2024-01-30T13:16:39;12.18;;;6.18;;
10715;SDS011;5409;42.620;23.316;2024-01-30T13:19:04;4.38;;;2.95;;
10715;SDS011;5409;42.620;23.316;2024-01-30T13:21:29;5.50;;;3.00;;
10715;SDS011;5409;42.620;23.316;2024-01-30T13:23:55;2.92;;;2.50;;
10715;SDS011;5409;42.620;23.316;2024-01-30T13:26:20;3.00;;;2.65;;
10715;SDS011;5409;42.620;23.316;2024-01-30T13:28:46;3.83;;;2.78;;
10715;SDS011;5409;42.620;23.316;2024-01-30T13:31:12;3.13;;;2.20;;
10715;SDS011;5409;42.620;23.316;2024-01-30T13:33:38;2.78;;;2.22;;
10715;SDS011;5409;42.620;23.316;2024-01-30T13:36:03;2.65;;;2.42;;
10715;SDS011;5409;42.620;23.316;2024-01-30T13:38:29;2.97;;;2.42;;
10715;SDS011;5409;42.620;23.316;2024-01-30T13:40:54;3.35;;;2.40;;
10715;SDS011;5409;42.620;23.316;2024-01-30T13:43:19;2.95;;;2.08;;
10715;SDS011;5409;42.620;23.316;2024-01-30T13:45:45;3.30;;;2.55;;
10715;SDS011;5409;42.620;23.316;2024-01-30T13:48:11;4.47;;;2.88;;
10715;SDS011;5409;42.620;23.316;2024-01-30T13:50:37;3.53;;;2.58;;
10715;SDS011;5409;42.620;23.316;2024-01-30T13:53:02;4.00;;;3.42;;
10715;SDS011;5409;42.620;23.316;2024-01-30T13:55:29;4.55;;;2.97;;
10715;SDS011;5409;42.620;23.316;2024-01-30T13:57:54;2.35;;;2.15;;
10715;SDS011;5409;42.620;23.316;2024-01-30T14:00:21;9.43;;;3.10;;
10715;SDS011;5409;42.620;23.316;2024-01-30T14:02:47;11.50;;;4.45;;
10715;SDS011;5409;42.620;23.316;2024-01-30T14:05:12;7.90;;;3.47;;
10715;SDS011;5409;42.620;23.316;2024-01-30T14:07:39;4.82;;;3.05;;
10715;SDS011;5409;42.620;23.316;2024-01-30T14:10:05;4.45;;;2.45;;
10715;SDS011;5409;42.620;23.316;2024-01-30T14:12:31;2.45;;;2.33;;
10715;SDS011;5409;42.620;23.316;2024-01-30T14:14:56;3.83;;;2.55;;
10715;SDS011;5409;42.620;23.316;2024-01-30T14:17:22;3.28;;;2.97;;
10715;SDS011;5409;42.620;23.316;2024-01-30T14:19:47;3.92;;;2.88;;
10715;SDS011;5409;42.620;23.316;2024-01-30T14:22:12;3.80;;;2.63;;
10715;SDS011;5409;42.620;23.316;2024-01-30T14:24:38;4.40;;;2.88;;
10715;SDS011;5409;42.620;23.316;2024-01-30T14:27:03;5.38;;;3.38;;
10715;SDS011;5409;42.620;23.316;2024-01-30T14:29:29;4.35;;;3.17;;
10715;SDS011;5409;42.620;23.316;2024-01-30T14:31:54;4.32;;;3.22;;
10715;SDS011;5409;42.620;23.316;2024-01-30T14:34:20;2.60;;;2.40;;
10715;SDS011;5409;42.620;23.316;2024-01-30T14:36:45;3.17;;;2.58;;
10715;SDS011;5409;42.620;23.316;2024-01-30T14:39:11;6.82;;;3.80;;
10715;SDS011;5409;42.620;23.316;2024-01-30T14:41:36;2.83;;;2.45;;
10715;SDS011;5409;42.620;23.316;2024-01-30T14:44:02;5.07;;;2.50;;